KDIJ

Details ICAO KDIJ
Name DRIGGS REED MEM
Region United States
Timezone America/Boise (UTC-7.0)
Plans Departing 2
Arriving 3
Stats Elevation 6,229 ft / 1,899 m (AMSL)
Location 43.742460° -111.097494°
Runways 1
Magnetic Variation 11.568° E
Sunrise 2017-12-16 14:53:36 UTC / 2017-12-16 07:53:36 Local
Sunset 2017-12-16 23:49:30 UTC / 2017-12-16 16:49:30 Local
Advertisement - Login to hide

Runways

ID Width Length Bearing (true) Bearing (mag) Surface Threshold Offset Overrun Length
03 75 ft / 23 m 7,293 ft / 2,223 m 48.09° 36.52° Asphalt 0 ft / 0 m 0 ft / 0 m
21 75 ft / 23 m 7,293 ft / 2,223 m 228.11° 216.54° Asphalt 0 ft / 0 m 0 ft / 0 m

Map

Weather


0- 5 10 15 20 25 30 35+ Temperature / ° C

Clouds and Precipitation
Forecast for 2017-12-16 12:00 UTC. Updated an hour ago

Ground ~20,000 ft ~40,000 ft Winds

METAR

KDIJ 161221Z AUTO 28003KT 2 1/2SM -SN BR BKN005 BKN011 OVC041 M03/M04 A2986 RMK AO2 CIG 003V009 P0000

TAF

TAF KDIJ 161120Z 1612/1712 19005KT 1SM -SN BR BKN008 OVC015 FM161600 33006KT 1SM -SN BR SCT004 OVC008 FM170100 VRB04KT P6SM SCT015 BKN060 FM170600 VRB04KT 4SM BR SCT008 OVC015 AMD LTD TO CLD VIS AND WIND

Frequencies

Recorded 120.77 MHz ASOS
Unicom 122.70 MHz CTAF/UNICOM
Warning: Do not use this data for real-world aviation or navigation. No guarantee of current accuracy is given.